EXS61TQ LEPA-EGHH
Flight info
| Callsign | EXS61TQ |
|---|---|
| Flight time | 1h 59m |
| Altitude | 36000 |
| Route | DRAGO DCT PAPOS DCT UMURE N863 GIROM DCT GONUP DCT MANAK DCT EPAPU UM184 EKRAS UT507 REVTU UY110 ORIST Y110 THRED |
| Aircraft | B738/M-SDE2E3FGHIRWXY/LB1 |
Departure
| Time | 2026-05-04 17:35 |
|---|---|
| Airport | Palma de Mallorca Airport (LEPA) |
Arrival
| Time | 2026-05-04 19:34 |
|---|---|
| Airport | Bournemouth Airport (EGHH) |
| Time | Latitude | Longitude | Altitude | Speed | Heading |
|---|---|---|---|---|---|
| 2026-05-04 16:55 | 39.55159 | 2.73011 | 37 ft | 0 kts | 194° |
| 2026-05-04 17:26 | 39.55173 | 2.73016 | 36 ft | 3 kts | 192° |
| 2026-05-04 17:26 | 39.55230 | 2.73019 | 35 ft | 3 kts | 136° |
| 2026-05-04 17:27 | 39.55235 | 2.73011 | 36 ft | 0 kts | 56° |
| 2026-05-04 17:29 | 39.55261 | 2.73038 | 37 ft | 8 kts | 17° |
| 2026-05-04 17:30 | 39.55487 | 2.73140 | 37 ft | 19 kts | 59° |
| 2026-05-04 17:31 | 39.55641 | 2.73471 | 37 ft | 22 kts | 58° |
| 2026-05-04 17:31 | 39.55896 | 2.74012 | 36 ft | 26 kts | 58° |
| 2026-05-04 17:32 | 39.56085 | 2.74296 | 36 ft | 19 kts | 27° |
| 2026-05-04 17:33 | 39.56158 | 2.74344 | 36 ft | 3 kts | 18° |
| 2026-05-04 17:33 | 39.56194 | 2.74344 | 37 ft | 8 kts | 348° |
| 2026-05-04 17:34 | 39.56079 | 2.73952 | 36 ft | 78 kts | 238° |
| 2026-05-04 17:34 | 39.55676 | 2.73106 | 38 ft | 142 kts | 239° |
| 2026-05-04 17:35 | 39.53827 | 2.68939 | 1718 ft | 176 kts | 241° |
| 2026-05-04 17:35 | 39.52431 | 2.66181 | 2440 ft | 198 kts | 234° |
| 2026-05-04 17:35 | 39.51604 | 2.64694 | 3043 ft | 202 kts | 235° |
| 2026-05-04 17:36 | 39.50805 | 2.63215 | 3713 ft | 205 kts | 235° |
| 2026-05-04 17:36 | 39.49986 | 2.61666 | 4383 ft | 211 kts | 236° |
| 2026-05-04 17:36 | 39.49174 | 2.60104 | 5285 ft | 207 kts | 236° |
| 2026-05-04 17:36 | 39.48368 | 2.58538 | 6069 ft | 210 kts | 236° |
| 2026-05-04 17:37 | 39.47559 | 2.56958 | 6853 ft | 211 kts | 237° |
| 2026-05-04 17:37 | 39.46748 | 2.55370 | 7604 ft | 212 kts | 237° |
| 2026-05-04 17:37 | 39.45929 | 2.53765 | 8362 ft | 214 kts | 237° |
| 2026-05-04 17:37 | 39.45182 | 2.52078 | 8960 ft | 226 kts | 251° |
| 2026-05-04 17:38 | 39.45125 | 2.49919 | 9152 ft | 258 kts | 281° |
| 2026-05-04 17:38 | 39.45971 | 2.47810 | 9757 ft | 277 kts | 304° |
| 2026-05-04 17:38 | 39.47473 | 2.46144 | 10386 ft | 294 kts | 320° |
| 2026-05-04 17:38 | 39.49253 | 2.44612 | 10566 ft | 320 kts | 321° |
| 2026-05-04 17:39 | 39.53128 | 2.41217 | 11517 ft | 343 kts | 320° |
| 2026-05-04 17:39 | 39.55072 | 2.39416 | 12278 ft | 343 kts | 316° |
| 2026-05-04 17:39 | 39.56833 | 2.37331 | 12977 ft | 343 kts | 310° |
| 2026-05-04 17:40 | 39.58500 | 2.35080 | 13706 ft | 346 kts | 308° |
| 2026-05-04 17:40 | 39.60110 | 2.32807 | 14373 ft | 349 kts | 307° |
| 2026-05-04 17:40 | 39.61758 | 2.30474 | 15080 ft | 351 kts | 307° |
| 2026-05-04 17:40 | 39.63416 | 2.28146 | 15770 ft | 353 kts | 308° |
| 2026-05-04 17:41 | 39.65100 | 2.25802 | 16445 ft | 356 kts | 308° |
| 2026-05-04 17:41 | 39.66803 | 2.23450 | 17112 ft | 359 kts | 308° |
| 2026-05-04 17:41 | 39.68524 | 2.21081 | 17773 ft | 362 kts | 308° |
| 2026-05-04 17:41 | 39.70261 | 2.18697 | 18399 ft | 365 kts | 308° |
| 2026-05-04 17:42 | 39.72019 | 2.16287 | 18958 ft | 368 kts | 307° |
| 2026-05-04 17:42 | 39.73785 | 2.13865 | 19516 ft | 371 kts | 307° |
| 2026-05-04 17:42 | 39.75574 | 2.11410 | 20054 ft | 375 kts | 307° |
| 2026-05-04 17:42 | 39.77375 | 2.08939 | 20600 ft | 378 kts | 307° |
| 2026-05-04 17:43 | 39.79183 | 2.06454 | 21152 ft | 381 kts | 307° |
| 2026-05-04 17:43 | 39.81022 | 2.03924 | 21614 ft | 386 kts | 307° |
| 2026-05-04 17:43 | 39.82850 | 2.01408 | 22118 ft | 389 kts | 306° |
| 2026-05-04 17:43 | 39.84659 | 1.98918 | 22644 ft | 391 kts | 306° |
| 2026-05-04 17:44 | 39.86539 | 1.96328 | 23143 ft | 394 kts | 306° |
| 2026-05-04 17:44 | 39.88427 | 1.93723 | 23602 ft | 398 kts | 306° |
| 2026-05-04 17:44 | 39.90339 | 1.91082 | 23923 ft | 401 kts | 306° |
| 2026-05-04 17:44 | 39.92261 | 1.88427 | 23887 ft | 402 kts | 306° |
| 2026-05-04 17:45 | 39.94167 | 1.85796 | 23922 ft | 398 kts | 306° |
| 2026-05-04 17:45 | 39.96064 | 1.83172 | 23903 ft | 397 kts | 306° |
| 2026-05-04 17:45 | 39.97960 | 1.80545 | 23904 ft | 398 kts | 306° |
| 2026-05-04 17:45 | 39.99871 | 1.77920 | 23899 ft | 401 kts | 308° |
| 2026-05-04 17:46 | 40.02161 | 1.75796 | 23882 ft | 420 kts | 328° |
| 2026-05-04 17:46 | 40.04890 | 1.74357 | 23989 ft | 422 kts | 331° |
| 2026-05-04 17:46 | 40.07647 | 1.72978 | 23917 ft | 425 kts | 331° |
| 2026-05-04 17:46 | 40.10414 | 1.71601 | 23925 ft | 425 kts | 331° |
| 2026-05-04 17:47 | 40.13182 | 1.70213 | 23920 ft | 427 kts | 331° |
| 2026-05-04 17:47 | 40.15912 | 1.68832 | 24117 ft | 422 kts | 331° |
| 2026-05-04 17:47 | 40.18638 | 1.67445 | 24473 ft | 419 kts | 330° |
| 2026-05-04 17:47 | 40.21371 | 1.66039 | 24733 ft | 425 kts | 330° |
| 2026-05-04 17:48 | 40.24138 | 1.64607 | 25070 ft | 430 kts | 330° |
| 2026-05-04 17:48 | 40.26932 | 1.63162 | 25509 ft | 431 kts | 331° |
| 2026-05-04 17:48 | 40.28793 | 1.62200 | 25802 ft | 432 kts | 331° |
| 2026-05-04 17:48 | 40.32555 | 1.60255 | 26322 ft | 436 kts | 331° |
| 2026-05-04 17:49 | 40.35362 | 1.58801 | 26671 ft | 439 kts | 331° |
| 2026-05-04 17:49 | 40.38223 | 1.57318 | 27025 ft | 442 kts | 331° |
| 2026-05-04 17:49 | 40.41090 | 1.55832 | 27410 ft | 444 kts | 331° |
| 2026-05-04 17:49 | 40.43982 | 1.54332 | 27794 ft | 446 kts | 331° |
| 2026-05-04 17:50 | 40.46875 | 1.52830 | 28144 ft | 449 kts | 331° |
| 2026-05-04 17:50 | 40.49795 | 1.51312 | 28521 ft | 451 kts | 331° |
| 2026-05-04 17:50 | 40.52684 | 1.49809 | 28885 ft | 453 kts | 331° |
| 2026-05-04 17:50 | 40.55620 | 1.48280 | 29238 ft | 455 kts | 331° |
| 2026-05-04 17:51 | 40.58575 | 1.46740 | 29553 ft | 457 kts | 331° |
| 2026-05-04 17:51 | 40.61542 | 1.45191 | 29855 ft | 460 kts | 332° |
| 2026-05-04 17:51 | 40.64524 | 1.43634 | 30133 ft | 462 kts | 332° |
| 2026-05-04 17:51 | 40.67526 | 1.42068 | 30400 ft | 464 kts | 332° |
| 2026-05-04 17:52 | 40.70532 | 1.40500 | 30736 ft | 463 kts | 331° |
| 2026-05-04 17:52 | 40.73496 | 1.38954 | 31152 ft | 461 kts | 331° |
| 2026-05-04 17:52 | 40.76470 | 1.37402 | 31574 ft | 458 kts | 331° |
| 2026-05-04 17:52 | 40.79440 | 1.35847 | 31893 ft | 458 kts | 331° |
| 2026-05-04 17:53 | 40.82426 | 1.34280 | 32128 ft | 460 kts | 331° |
| 2026-05-04 17:53 | 40.85373 | 1.32732 | 32404 ft | 461 kts | 331° |
| 2026-05-04 17:53 | 40.88385 | 1.31150 | 32806 ft | 459 kts | 331° |
| 2026-05-04 17:53 | 40.91313 | 1.29613 | 33263 ft | 456 kts | 331° |
| 2026-05-04 17:54 | 40.94261 | 1.28062 | 33596 ft | 456 kts | 331° |
| 2026-05-04 17:54 | 40.97222 | 1.26500 | 33814 ft | 458 kts | 331° |
| 2026-05-04 17:54 | 41.00185 | 1.24936 | 34041 ft | 459 kts | 331° |
| 2026-05-04 17:54 | 41.03121 | 1.23387 | 34347 ft | 456 kts | 331° |
| 2026-05-04 17:55 | 41.06073 | 1.21829 | 34723 ft | 453 kts | 331° |
| 2026-05-04 17:55 | 41.08991 | 1.20287 | 35030 ft | 451 kts | 331° |
| 2026-05-04 17:55 | 41.11918 | 1.18736 | 35244 ft | 452 kts | 331° |
| 2026-05-04 17:55 | 41.14901 | 1.17344 | 35400 ft | 461 kts | 338° |
| 2026-05-04 17:56 | 41.18058 | 1.16576 | 35502 ft | 472 kts | 349° |
| 2026-05-04 17:56 | 41.21339 | 1.16264 | 35902 ft | 469 kts | 351° |
| 2026-05-04 17:56 | 41.27905 | 1.15735 | 35921 ft | 473 kts | 350° |
| 2026-05-04 17:57 | 41.34454 | 1.15072 | 35940 ft | 468 kts | 349° |
| 2026-05-04 17:57 | 41.40942 | 1.14393 | 35948 ft | 468 kts | 349° |
| 2026-05-04 17:58 | 41.47419 | 1.13723 | 35929 ft | 468 kts | 349° |
| 2026-05-04 17:58 | 41.53929 | 1.13050 | 35922 ft | 468 kts | 349° |
| 2026-05-04 17:59 | 41.60381 | 1.12349 | 35928 ft | 467 kts | 349° |
| 2026-05-04 18:00 | 41.70115 | 1.11265 | 35930 ft | 467 kts | 349° |
| 2026-05-04 18:00 | 41.76604 | 1.10576 | 35947 ft | 467 kts | 349° |
| 2026-05-04 18:01 | 41.83105 | 1.09902 | 35953 ft | 469 kts | 349° |
| 2026-05-04 18:01 | 41.89587 | 1.09224 | 35961 ft | 469 kts | 349° |
| 2026-05-04 18:02 | 41.99353 | 1.08193 | 35972 ft | 471 kts | 350° |
| 2026-05-04 18:02 | 42.05899 | 1.07501 | 35977 ft | 473 kts | 349° |
| 2026-05-04 18:03 | 42.12496 | 1.06801 | 35944 ft | 475 kts | 350° |
| 2026-05-04 18:03 | 42.19059 | 1.06096 | 35932 ft | 475 kts | 350° |
| 2026-05-04 18:04 | 42.25670 | 1.05367 | 35929 ft | 476 kts | 350° |
| 2026-05-04 18:05 | 42.35586 | 1.04273 | 35963 ft | 476 kts | 350° |
| 2026-05-04 18:05 | 42.42149 | 1.03550 | 35969 ft | 476 kts | 351° |
| 2026-05-04 18:06 | 42.52046 | 1.02473 | 35942 ft | 475 kts | 351° |
| 2026-05-04 18:06 | 42.58599 | 1.01765 | 35945 ft | 473 kts | 351° |
| 2026-05-04 18:07 | 42.65175 | 1.01064 | 35957 ft | 472 kts | 352° |
| 2026-05-04 18:07 | 42.71672 | 1.00352 | 35983 ft | 471 kts | 351° |
| 2026-05-04 18:08 | 42.78114 | 0.99546 | 35973 ft | 469 kts | 346° |
| 2026-05-04 18:08 | 42.84410 | 0.97556 | 35985 ft | 459 kts | 340° |
| 2026-05-04 18:09 | 42.96921 | 0.93022 | 36000 ft | 471 kts | 340° |
| 2026-05-04 18:10 | 43.02209 | 0.91180 | 36021 ft | 471 kts | 341° |
| 2026-05-04 18:10 | 43.09632 | 0.88617 | 36000 ft | 473 kts | 341° |
| 2026-05-04 18:11 | 43.14978 | 0.86766 | 36000 ft | 473 kts | 341° |
| 2026-05-04 18:11 | 43.21327 | 0.84561 | 35986 ft | 472 kts | 341° |
| 2026-05-04 18:12 | 43.27708 | 0.82337 | 35996 ft | 471 kts | 341° |
| 2026-05-04 18:12 | 43.34066 | 0.80117 | 35982 ft | 470 kts | 341° |
| 2026-05-04 18:13 | 43.40364 | 0.77913 | 35990 ft | 469 kts | 341° |
| 2026-05-04 18:14 | 43.49717 | 0.74038 | 35979 ft | 463 kts | 333° |
| 2026-05-04 18:14 | 43.55565 | 0.70529 | 35956 ft | 461 kts | 331° |
| 2026-05-04 18:15 | 43.67300 | 0.63418 | 35976 ft | 460 kts | 332° |
| 2026-05-04 18:16 | 43.73188 | 0.59922 | 35992 ft | 460 kts | 332° |
| 2026-05-04 18:16 | 43.79075 | 0.56433 | 35976 ft | 460 kts | 332° |
| 2026-05-04 18:17 | 43.87886 | 0.51196 | 35970 ft | 462 kts | 332° |
| 2026-05-04 18:18 | 43.96773 | 0.45891 | 35970 ft | 464 kts | 332° |
| 2026-05-04 18:18 | 44.02677 | 0.42358 | 35968 ft | 465 kts | 332° |
| 2026-05-04 18:19 | 44.11623 | 0.36990 | 35995 ft | 468 kts | 333° |
| 2026-05-04 18:19 | 44.17627 | 0.33377 | 35972 ft | 469 kts | 333° |
| 2026-05-04 18:20 | 44.23625 | 0.29761 | 35959 ft | 470 kts | 333° |
| 2026-05-04 18:20 | 44.29594 | 0.26154 | 35960 ft | 470 kts | 333° |
| 2026-05-04 18:21 | 44.35592 | 0.22521 | 35966 ft | 469 kts | 333° |
| 2026-05-04 18:21 | 44.41599 | 0.18874 | 35946 ft | 470 kts | 333° |
| 2026-05-04 18:22 | 44.47563 | 0.15245 | 35952 ft | 469 kts | 333° |
| 2026-05-04 18:22 | 44.53559 | 0.11589 | 35967 ft | 468 kts | 333° |
| 2026-05-04 18:23 | 44.59516 | 0.07948 | 35945 ft | 469 kts | 333° |
| 2026-05-04 18:23 | 44.65504 | 0.04279 | 35950 ft | 468 kts | 333° |
| 2026-05-04 18:24 | 44.71491 | 0.00604 | 35949 ft | 468 kts | 333° |
| 2026-05-04 18:24 | 44.77340 | -0.02996 | 35964 ft | 469 kts | 333° |
| 2026-05-04 18:25 | 44.83317 | -0.06682 | 35960 ft | 468 kts | 333° |
| 2026-05-04 18:25 | 44.89285 | -0.10371 | 35948 ft | 468 kts | 333° |
| 2026-05-04 18:26 | 44.95256 | -0.14070 | 35947 ft | 468 kts | 333° |
| 2026-05-04 18:26 | 45.01215 | -0.17771 | 35957 ft | 467 kts | 333° |
| 2026-05-04 18:27 | 45.07130 | -0.21452 | 35951 ft | 467 kts | 333° |
| 2026-05-04 18:27 | 45.13097 | -0.25175 | 35945 ft | 467 kts | 333° |
| 2026-05-04 18:28 | 45.19045 | -0.28893 | 35946 ft | 467 kts | 333° |
| 2026-05-04 18:28 | 45.24968 | -0.32605 | 35956 ft | 467 kts | 333° |
| 2026-05-04 18:29 | 45.30925 | -0.36347 | 35944 ft | 468 kts | 333° |
| 2026-05-04 18:29 | 45.36883 | -0.40097 | 35950 ft | 468 kts | 333° |
| 2026-05-04 18:30 | 45.45816 | -0.45738 | 35952 ft | 468 kts | 333° |
| 2026-05-04 18:31 | 45.51746 | -0.49493 | 35948 ft | 469 kts | 333° |
| 2026-05-04 18:31 | 45.57719 | -0.53284 | 35946 ft | 469 kts | 333° |
| 2026-05-04 18:32 | 45.63691 | -0.57083 | 35948 ft | 469 kts | 333° |
| 2026-05-04 18:32 | 45.69660 | -0.60889 | 35930 ft | 469 kts | 333° |
| 2026-05-04 18:33 | 45.75581 | -0.64673 | 35961 ft | 469 kts | 333° |
| 2026-05-04 18:33 | 45.81546 | -0.68495 | 35937 ft | 469 kts | 333° |
| 2026-05-04 18:34 | 45.87511 | -0.72326 | 35959 ft | 468 kts | 333° |
| 2026-05-04 18:34 | 45.93432 | -0.76137 | 35937 ft | 468 kts | 333° |
| 2026-05-04 18:35 | 45.99377 | -0.79973 | 35979 ft | 468 kts | 333° |
| 2026-05-04 18:35 | 46.05323 | -0.83819 | 35952 ft | 468 kts | 333° |
| 2026-05-04 18:36 | 46.11237 | -0.87654 | 35936 ft | 468 kts | 333° |
| 2026-05-04 18:36 | 46.17200 | -0.91528 | 35958 ft | 468 kts | 333° |
| 2026-05-04 18:37 | 46.23221 | -0.94956 | 35916 ft | 471 kts | 345° |
| 2026-05-04 18:37 | 46.26425 | -0.95977 | 36046 ft | 469 kts | 347° |
| 2026-05-04 18:37 | 46.29625 | -0.96914 | 35963 ft | 471 kts | 347° |
| 2026-05-04 18:38 | 46.36076 | -0.98776 | 35957 ft | 471 kts | 347° |
| 2026-05-04 18:38 | 46.42405 | -1.00665 | 35960 ft | 472 kts | 347° |
| 2026-05-04 18:39 | 46.48809 | -1.02627 | 35966 ft | 472 kts | 346° |
| 2026-05-04 18:39 | 46.55263 | -1.04623 | 35961 ft | 473 kts | 346° |
| 2026-05-04 18:40 | 46.61719 | -1.06624 | 35956 ft | 474 kts | 346° |
| 2026-05-04 18:40 | 46.68184 | -1.08630 | 35962 ft | 475 kts | 346° |
| 2026-05-04 18:41 | 46.74619 | -1.10631 | 35975 ft | 475 kts | 346° |
| 2026-05-04 18:41 | 46.81107 | -1.12653 | 35955 ft | 476 kts | 346° |
| 2026-05-04 18:42 | 46.87593 | -1.14680 | 35969 ft | 476 kts | 346° |
| 2026-05-04 18:42 | 46.94080 | -1.16712 | 35958 ft | 476 kts | 346° |
| 2026-05-04 18:43 | 47.00514 | -1.18732 | 35950 ft | 476 kts | 346° |
| 2026-05-04 18:43 | 47.06988 | -1.20770 | 35959 ft | 475 kts | 346° |
| 2026-05-04 18:44 | 47.13451 | -1.22810 | 35930 ft | 475 kts | 346° |
| 2026-05-04 18:44 | 47.19914 | -1.24855 | 35956 ft | 474 kts | 346° |
| 2026-05-04 18:45 | 47.26336 | -1.26891 | 35946 ft | 473 kts | 346° |
| 2026-05-04 18:45 | 47.32762 | -1.28934 | 35932 ft | 472 kts | 346° |
| 2026-05-04 18:46 | 47.39171 | -1.30977 | 35941 ft | 470 kts | 346° |
| 2026-05-04 18:46 | 47.45571 | -1.33022 | 35924 ft | 470 kts | 346° |
| 2026-05-04 18:47 | 47.51927 | -1.35058 | 35933 ft | 469 kts | 346° |
| 2026-05-04 18:47 | 47.58303 | -1.37106 | 35941 ft | 468 kts | 346° |
| 2026-05-04 18:48 | 47.64688 | -1.39162 | 35936 ft | 468 kts | 346° |
| 2026-05-04 18:48 | 47.71064 | -1.41177 | 35939 ft | 469 kts | 349° |
| 2026-05-04 18:49 | 47.77538 | -1.41897 | 36014 ft | 468 kts | 357° |
| 2026-05-04 18:49 | 47.84069 | -1.42233 | 35971 ft | 469 kts | 357° |
| 2026-05-04 18:50 | 47.90616 | -1.42672 | 35961 ft | 470 kts | 356° |
| 2026-05-04 18:50 | 47.97153 | -1.43175 | 35953 ft | 471 kts | 356° |
| 2026-05-04 18:51 | 48.03653 | -1.43672 | 35963 ft | 471 kts | 356° |
| 2026-05-04 18:51 | 48.10211 | -1.44144 | 35955 ft | 471 kts | 357° |
| 2026-05-04 18:52 | 48.16769 | -1.44605 | 35974 ft | 471 kts | 357° |
| 2026-05-04 18:52 | 48.23317 | -1.45070 | 35957 ft | 471 kts | 357° |
| 2026-05-04 18:53 | 48.29653 | -1.45523 | 35843 ft | 461 kts | 357° |
| 2026-05-04 18:53 | 48.32789 | -1.45748 | 35434 ft | 457 kts | 357° |
| 2026-05-04 18:53 | 48.35968 | -1.45977 | 35179 ft | 450 kts | 357° |
| 2026-05-04 18:53 | 48.39098 | -1.46202 | 34731 ft | 450 kts | 357° |
| 2026-05-04 18:54 | 48.42229 | -1.46428 | 34363 ft | 447 kts | 357° |
| 2026-05-04 18:54 | 48.45330 | -1.46653 | 33980 ft | 445 kts | 358° |
| 2026-05-04 18:54 | 48.48390 | -1.46873 | 33497 ft | 445 kts | 358° |
| 2026-05-04 18:54 | 48.51465 | -1.47096 | 33132 ft | 441 kts | 358° |
| 2026-05-04 18:55 | 48.54523 | -1.47317 | 32727 ft | 439 kts | 358° |
| 2026-05-04 18:55 | 48.60603 | -1.47758 | 31985 ft | 434 kts | 357° |
| 2026-05-04 18:55 | 48.63621 | -1.47978 | 31610 ft | 432 kts | 357° |
| 2026-05-04 18:56 | 48.66611 | -1.48196 | 31251 ft | 429 kts | 357° |
| 2026-05-04 18:56 | 48.68589 | -1.48340 | 31011 ft | 428 kts | 357° |
| 2026-05-04 18:56 | 48.71553 | -1.48556 | 30653 ft | 426 kts | 357° |
| 2026-05-04 18:56 | 48.75482 | -1.48843 | 30185 ft | 425 kts | 357° |
| 2026-05-04 18:57 | 48.77479 | -1.48989 | 29909 ft | 424 kts | 357° |
| 2026-05-04 18:57 | 48.80418 | -1.49204 | 29484 ft | 422 kts | 357° |
| 2026-05-04 18:57 | 48.83344 | -1.49419 | 29095 ft | 419 kts | 357° |
| 2026-05-04 18:57 | 48.86216 | -1.49629 | 28723 ft | 416 kts | 357° |
| 2026-05-04 18:58 | 48.89103 | -1.49845 | 28349 ft | 413 kts | 356° |
| 2026-05-04 18:58 | 48.91956 | -1.50357 | 27747 ft | 416 kts | 349° |
| 2026-05-04 18:58 | 48.94810 | -1.51230 | 27216 ft | 417 kts | 347° |
| 2026-05-04 18:58 | 48.97633 | -1.52192 | 26851 ft | 414 kts | 347° |
| 2026-05-04 18:59 | 49.00439 | -1.53165 | 26453 ft | 412 kts | 347° |
| 2026-05-04 18:59 | 49.03214 | -1.54114 | 26130 ft | 408 kts | 347° |
| 2026-05-04 18:59 | 49.05981 | -1.55042 | 25730 ft | 406 kts | 347° |
| 2026-05-04 18:59 | 49.08733 | -1.55950 | 25395 ft | 402 kts | 348° |
| 2026-05-04 19:00 | 49.11466 | -1.56842 | 25036 ft | 400 kts | 348° |
| 2026-05-04 19:00 | 49.14149 | -1.57712 | 24686 ft | 397 kts | 348° |
| 2026-05-04 19:00 | 49.16844 | -1.58586 | 24355 ft | 394 kts | 348° |
| 2026-05-04 19:00 | 49.19514 | -1.59451 | 24004 ft | 392 kts | 348° |
| 2026-05-04 19:01 | 49.22174 | -1.60315 | 23667 ft | 389 kts | 348° |
| 2026-05-04 19:01 | 49.24822 | -1.61175 | 23282 ft | 387 kts | 348° |
| 2026-05-04 19:01 | 49.27451 | -1.62029 | 22894 ft | 384 kts | 348° |
| 2026-05-04 19:01 | 49.30061 | -1.62879 | 22545 ft | 381 kts | 348° |
| 2026-05-04 19:02 | 49.32641 | -1.63720 | 22214 ft | 377 kts | 348° |
| 2026-05-04 19:02 | 49.35199 | -1.64555 | 21857 ft | 374 kts | 348° |
| 2026-05-04 19:02 | 49.37740 | -1.65386 | 21549 ft | 370 kts | 348° |
| 2026-05-04 19:02 | 49.40246 | -1.66206 | 21211 ft | 367 kts | 348° |
| 2026-05-04 19:03 | 49.42743 | -1.67023 | 20870 ft | 365 kts | 348° |
| 2026-05-04 19:03 | 49.45187 | -1.67825 | 20555 ft | 362 kts | 348° |
| 2026-05-04 19:03 | 49.47643 | -1.68631 | 20234 ft | 359 kts | 348° |
| 2026-05-04 19:03 | 49.50081 | -1.69432 | 19915 ft | 357 kts | 348° |
| 2026-05-04 19:04 | 49.52504 | -1.70229 | 19589 ft | 354 kts | 349° |
| 2026-05-04 19:04 | 49.54901 | -1.71017 | 19281 ft | 351 kts | 349° |
| 2026-05-04 19:04 | 49.57286 | -1.71803 | 18970 ft | 349 kts | 349° |
| 2026-05-04 19:04 | 49.59657 | -1.72585 | 18660 ft | 347 kts | 349° |
| 2026-05-04 19:05 | 49.61983 | -1.73307 | 18396 ft | 343 kts | 350° |
| 2026-05-04 19:05 | 49.64310 | -1.73988 | 18161 ft | 338 kts | 351° |
| 2026-05-04 19:05 | 49.66608 | -1.74652 | 17880 ft | 334 kts | 351° |
| 2026-05-04 19:05 | 49.68879 | -1.75309 | 17606 ft | 330 kts | 351° |
| 2026-05-04 19:06 | 49.71125 | -1.75962 | 17339 ft | 326 kts | 351° |
| 2026-05-04 19:06 | 49.73345 | -1.76611 | 17061 ft | 322 kts | 351° |
| 2026-05-04 19:06 | 49.75536 | -1.77254 | 16853 ft | 317 kts | 351° |
| 2026-05-04 19:06 | 49.77688 | -1.77888 | 16608 ft | 313 kts | 351° |
| 2026-05-04 19:07 | 49.79807 | -1.78512 | 16266 ft | 313 kts | 351° |
| 2026-05-04 19:07 | 49.81941 | -1.79142 | 15989 ft | 311 kts | 351° |
| 2026-05-04 19:07 | 49.84059 | -1.79768 | 15692 ft | 309 kts | 351° |
| 2026-05-04 19:07 | 49.86171 | -1.80393 | 15392 ft | 308 kts | 350° |
| 2026-05-04 19:08 | 49.88271 | -1.81015 | 15105 ft | 306 kts | 350° |
| 2026-05-04 19:08 | 49.90361 | -1.81635 | 14819 ft | 305 kts | 351° |
| 2026-05-04 19:08 | 49.92446 | -1.82253 | 14522 ft | 304 kts | 351° |
| 2026-05-04 19:08 | 49.94525 | -1.82870 | 14235 ft | 303 kts | 351° |
| 2026-05-04 19:09 | 49.96594 | -1.83485 | 13933 ft | 303 kts | 350° |
| 2026-05-04 19:09 | 49.98660 | -1.84099 | 13622 ft | 302 kts | 349° |
| 2026-05-04 19:09 | 50.00736 | -1.84530 | 13252 ft | 302 kts | 1° |
| 2026-05-04 19:09 | 50.02811 | -1.84319 | 13091 ft | 294 kts | 7° |
| 2026-05-04 19:10 | 50.04828 | -1.83961 | 12698 ft | 296 kts | 7° |
| 2026-05-04 19:10 | 50.06868 | -1.83611 | 12498 ft | 292 kts | 7° |
| 2026-05-04 19:10 | 50.08887 | -1.83301 | 12139 ft | 293 kts | 6° |
| 2026-05-04 19:10 | 50.10911 | -1.83013 | 11876 ft | 290 kts | 6° |
| 2026-05-04 19:11 | 50.12919 | -1.82735 | 11579 ft | 289 kts | 6° |
| 2026-05-04 19:11 | 50.14905 | -1.82323 | 11284 ft | 288 kts | 13° |
| 2026-05-04 19:11 | 50.16828 | -1.81520 | 11069 ft | 283 kts | 17° |
| 2026-05-04 19:11 | 50.18713 | -1.80629 | 10749 ft | 283 kts | 18° |
| 2026-05-04 19:12 | 50.20593 | -1.79730 | 10488 ft | 282 kts | 17° |
| 2026-05-04 19:12 | 50.24329 | -1.77984 | 10054 ft | 274 kts | 17° |
| 2026-05-04 19:12 | 50.26143 | -1.77151 | 9829 ft | 272 kts | 17° |
| 2026-05-04 19:13 | 50.27966 | -1.76321 | 9527 ft | 272 kts | 17° |
| 2026-05-04 19:13 | 50.29774 | -1.75501 | 9266 ft | 270 kts | 17° |
| 2026-05-04 19:13 | 50.31578 | -1.74686 | 8974 ft | 269 kts | 17° |
| 2026-05-04 19:13 | 50.33348 | -1.73886 | 8719 ft | 267 kts | 17° |
| 2026-05-04 19:14 | 50.35133 | -1.73080 | 8449 ft | 266 kts | 17° |
| 2026-05-04 19:14 | 50.36905 | -1.72280 | 8184 ft | 264 kts | 17° |
| 2026-05-04 19:14 | 50.38672 | -1.71483 | 7922 ft | 263 kts | 17° |
| 2026-05-04 19:14 | 50.40429 | -1.70689 | 7659 ft | 262 kts | 17° |
| 2026-05-04 19:15 | 50.42180 | -1.69897 | 7463 ft | 258 kts | 17° |
| 2026-05-04 19:15 | 50.43873 | -1.69132 | 7390 ft | 250 kts | 17° |
| 2026-05-04 19:15 | 50.45524 | -1.68385 | 7244 ft | 244 kts | 17° |
| 2026-05-04 19:15 | 50.47132 | -1.67657 | 7149 ft | 238 kts | 17° |
| 2026-05-04 19:16 | 50.48727 | -1.66934 | 7037 ft | 239 kts | 17° |
| 2026-05-04 19:16 | 50.50316 | -1.66181 | 6989 ft | 235 kts | 21° |
| 2026-05-04 19:16 | 50.51799 | -1.65198 | 7004 ft | 228 kts | 25° |
| 2026-05-04 19:16 | 50.53235 | -1.64171 | 6991 ft | 226 kts | 25° |
| 2026-05-04 19:17 | 50.54674 | -1.63140 | 7002 ft | 228 kts | 25° |
| 2026-05-04 19:17 | 50.56118 | -1.62113 | 7000 ft | 233 kts | 25° |
| 2026-05-04 19:17 | 50.57601 | -1.61068 | 6992 ft | 232 kts | 25° |
| 2026-05-04 19:17 | 50.59067 | -1.60042 | 7004 ft | 230 kts | 25° |
| 2026-05-04 19:18 | 50.60528 | -1.59022 | 6992 ft | 230 kts | 25° |
| 2026-05-04 19:18 | 50.61973 | -1.58014 | 7002 ft | 222 kts | 25° |
| 2026-05-04 19:18 | 50.63337 | -1.57064 | 6986 ft | 206 kts | 25° |
| 2026-05-04 19:18 | 50.64599 | -1.56184 | 6980 ft | 192 kts | 25° |
| 2026-05-04 19:19 | 50.65867 | -1.55515 | 6962 ft | 195 kts | 1° |
| 2026-05-04 19:19 | 50.67105 | -1.56226 | 6893 ft | 196 kts | 315° |
| 2026-05-04 19:19 | 50.67861 | -1.57986 | 6797 ft | 194 kts | 300° |
| 2026-05-04 19:19 | 50.68545 | -1.59809 | 6577 ft | 195 kts | 301° |
| 2026-05-04 19:20 | 50.69232 | -1.61629 | 6433 ft | 191 kts | 301° |
| 2026-05-04 19:20 | 50.69905 | -1.63413 | 6267 ft | 189 kts | 301° |
| 2026-05-04 19:20 | 50.70580 | -1.65200 | 6112 ft | 189 kts | 301° |
| 2026-05-04 19:20 | 50.71254 | -1.66985 | 5973 ft | 189 kts | 301° |
| 2026-05-04 19:21 | 50.71930 | -1.68775 | 5800 ft | 190 kts | 301° |
| 2026-05-04 19:21 | 50.72519 | -1.70639 | 5635 ft | 191 kts | 289° |
| 2026-05-04 19:21 | 50.72792 | -1.72681 | 5481 ft | 191 kts | 274° |
| 2026-05-04 19:21 | 50.72826 | -1.74765 | 5352 ft | 189 kts | 271° |
| 2026-05-04 19:22 | 50.72831 | -1.76842 | 5210 ft | 188 kts | 270° |
| 2026-05-04 19:22 | 50.72831 | -1.78900 | 5062 ft | 188 kts | 270° |
| 2026-05-04 19:22 | 50.72829 | -1.80988 | 4763 ft | 191 kts | 270° |
| 2026-05-04 19:22 | 50.72826 | -1.83071 | 4491 ft | 189 kts | 270° |
| 2026-05-04 19:23 | 50.72820 | -1.85143 | 4202 ft | 188 kts | 270° |
| 2026-05-04 19:23 | 50.72805 | -1.87184 | 3918 ft | 188 kts | 270° |
| 2026-05-04 19:23 | 50.72787 | -1.89243 | 3637 ft | 187 kts | 270° |
| 2026-05-04 19:23 | 50.72662 | -1.91282 | 3357 ft | 187 kts | 257° |
| 2026-05-04 19:24 | 50.72260 | -1.93230 | 3093 ft | 185 kts | 250° |
| 2026-05-04 19:24 | 50.71810 | -1.95167 | 3050 ft | 191 kts | 250° |
| 2026-05-04 19:24 | 50.71349 | -1.97146 | 3012 ft | 192 kts | 250° |
| 2026-05-04 19:24 | 50.70894 | -1.99100 | 3002 ft | 186 kts | 251° |
| 2026-05-04 19:25 | 50.70463 | -2.00936 | 2994 ft | 182 kts | 250° |
| 2026-05-04 19:25 | 50.70025 | -2.02816 | 2990 ft | 184 kts | 250° |
| 2026-05-04 19:25 | 50.69584 | -2.04698 | 3028 ft | 187 kts | 250° |
| 2026-05-04 19:25 | 50.69130 | -2.06644 | 2998 ft | 189 kts | 250° |
| 2026-05-04 19:26 | 50.68675 | -2.08585 | 3003 ft | 186 kts | 250° |
| 2026-05-04 19:26 | 50.68241 | -2.10491 | 2998 ft | 183 kts | 255° |
| 2026-05-04 19:26 | 50.68049 | -2.12473 | 2999 ft | 183 kts | 272° |
| 2026-05-04 19:26 | 50.68201 | -2.14454 | 3000 ft | 183 kts | 288° |
| 2026-05-04 19:27 | 50.68686 | -2.16305 | 3004 ft | 182 kts | 303° |
| 2026-05-04 19:27 | 50.69466 | -2.17874 | 2994 ft | 181 kts | 320° |
| 2026-05-04 19:27 | 50.70476 | -2.19040 | 3003 ft | 180 kts | 335° |
| 2026-05-04 19:27 | 50.71641 | -2.19726 | 3017 ft | 179 kts | 349° |
| 2026-05-04 19:28 | 50.72871 | -2.19889 | 3001 ft | 176 kts | 6° |
| 2026-05-04 19:28 | 50.74043 | -2.19513 | 3009 ft | 169 kts | 22° |
| 2026-05-04 19:28 | 50.75128 | -2.18806 | 3026 ft | 170 kts | 25° |
| 2026-05-04 19:28 | 50.76224 | -2.18043 | 3001 ft | 175 kts | 25° |
| 2026-05-04 19:29 | 50.77336 | -2.17259 | 3026 ft | 173 kts | 25° |
| 2026-05-04 19:29 | 50.78406 | -2.16407 | 2993 ft | 170 kts | 35° |
| 2026-05-04 19:29 | 50.79276 | -2.15173 | 2989 ft | 169 kts | 52° |
| 2026-05-04 19:29 | 50.79879 | -2.13593 | 3000 ft | 174 kts | 67° |
| 2026-05-04 19:30 | 50.80198 | -2.11705 | 2888 ft | 176 kts | 83° |
| 2026-05-04 19:30 | 50.80165 | -2.09797 | 2822 ft | 171 kts | 99° |
| 2026-05-04 19:30 | 50.79848 | -2.08024 | 2881 ft | 171 kts | 105° |
| 2026-05-04 19:30 | 50.79485 | -2.06167 | 2635 ft | 178 kts | 105° |
| 2026-05-04 19:31 | 50.79126 | -2.04327 | 2451 ft | 173 kts | 105° |
| 2026-05-04 19:31 | 50.78769 | -2.02514 | 2210 ft | 170 kts | 105° |
| 2026-05-04 19:31 | 50.78422 | -2.00743 | 1997 ft | 169 kts | 105° |
| 2026-05-04 19:31 | 50.78069 | -1.98975 | 1776 ft | 168 kts | 105° |
| 2026-05-04 19:32 | 50.77713 | -1.97228 | 1562 ft | 167 kts | 105° |
| 2026-05-04 19:32 | 50.77359 | -1.95484 | 1368 ft | 165 kts | 105° |
| 2026-05-04 19:32 | 50.77008 | -1.93753 | 1184 ft | 164 kts | 105° |
| 2026-05-04 19:32 | 50.76771 | -1.91990 | 917 ft | 164 kts | 87° |
| 2026-05-04 19:33 | 50.77040 | -1.90348 | 796 ft | 148 kts | 72° |
| 2026-05-04 19:33 | 50.77284 | -1.88819 | 566 ft | 142 kts | 77° |
| 2026-05-04 19:33 | 50.77496 | -1.87305 | 332 ft | 142 kts | 78° |
| 2026-05-04 19:33 | 50.77743 | -1.85775 | 164 ft | 145 kts | 76° |
| 2026-05-04 19:34 | 50.78002 | -1.84302 | 43 ft | 128 kts | 76° |
| 2026-05-04 19:34 | 50.78185 | -1.83188 | 44 ft | 51 kts | 75° |
| 2026-05-04 19:34 | 50.78234 | -1.82830 | 42 ft | 16 kts | 110° |
| 2026-05-04 19:34 | 50.78201 | -1.82742 | 39 ft | 6 kts | 168° |
| 2026-05-04 19:35 | 50.78171 | -1.82768 | 37 ft | 6 kts | 217° |
| 2026-05-04 19:35 | 50.78143 | -1.82810 | 37 ft | 5 kts | 236° |
| 2026-05-04 19:35 | 50.78126 | -1.82862 | 37 ft | 6 kts | 246° |
| 2026-05-04 19:35 | 50.78117 | -1.82930 | 39 ft | 7 kts | 272° |
| 2026-05-04 19:36 | 50.78120 | -1.83002 | 40 ft | 7 kts | 275° |
| 2026-05-04 19:36 | 50.78117 | -1.83079 | 41 ft | 8 kts | 254° |
| 2026-05-04 19:36 | 50.78092 | -1.83161 | 41 ft | 10 kts | 238° |
| 2026-05-04 19:36 | 50.78052 | -1.83257 | 42 ft | 11 kts | 236° |
| 2026-05-04 19:37 | 50.78017 | -1.83373 | 42 ft | 13 kts | 243° |
| 2026-05-04 19:37 | 50.77957 | -1.83479 | 41 ft | 14 kts | 198° |
| 2026-05-04 19:37 | 50.77854 | -1.83472 | 41 ft | 12 kts | 173° |
| 2026-05-04 19:37 | 50.77774 | -1.83467 | 42 ft | 12 kts | 177° |
| 2026-05-04 19:38 | 50.77726 | -1.83405 | 41 ft | 10 kts | 89° |
| 2026-05-04 19:38 | 50.77727 | -1.83368 | 41 ft | 0 kts | 85° |